Hermanos Mora Martin — EA7601 — position and weather

sailwx.info

Track history (hours):
 
Tides and Currents Weather Stations Pressure Air Temp Water Temp Dewpoint Dewpoint Depression Visibility Wind Speed Wind Dir Waves Ship Positions

Hermanos Mora Martin

Last reported at 2017-Oct-12 11:20 UTC. Time now 2017-Oct-18 18:40 UTC.
Position N 36°56' W 008°05'.

Length 23 m.

Type: Fishing. MMSI: 224171260.

Date/timePositionNaut miles runAvg speedWind from/ knotsBaromVisibWave heightAir tempDewpointWater temp
2017-Oct-12 11:20N 36°56' W 008°05'310.1
2017-Oct-12 11:00N 36°56' W 008°10'510.0
2017-Oct-12 10:30N 36°56' W 008°16'5 9.9
2017-Oct-12 10:00N 36°56' W 008°22'5 9.8
2017-Oct-12 09:30N 36°57' W 008°28'5 9.6
2017-Oct-12 09:00N 36°57' W 008°34'5 9.7
2017-Oct-12 08:30N 36°58' W 008°40'5 9.9
2017-Oct-12 07:59N 36°58' W 008°47'5 9.8
2017-Oct-12 07:30N 36°59' W 008°52'44 6.0
2017-Oct-12 00:12N 37°40' W 009°12'1 2.6
2017-Oct-12 00:00N 37°40' W 009°12'1 2.7
2017-Oct-11 23:30N 37°42' W 009°12'2 3.1
2017-Oct-11 23:00N 37°43' W 009°12'0 0.6
2017-Oct-11 22:30N 37°43' W 009°12'1 1.4
2017-Oct-11 21:59N 37°42' W 009°12'1 2.6
2017-Oct-11 21:24N 37°41' W 009°12'9 2.7
2017-Oct-11 18:05N 37°32' W 009°12'110.1
2017-Oct-11 17:59N 37°31' W 009°13'4 6.1
2017-Oct-11 17:23N 37°29' W 009°17'9 0.5
2017-Oct-10 23:59N 37°37' W 009°22'1 2.5
2017-Oct-10 23:30N 37°36' W 009°21'1 2.4
2017-Oct-10 23:00N 37°35' W 009°20'1 2.4
2017-Oct-10 22:30N 37°34' W 009°19'1 2.4
2017-Oct-10 22:00N 37°33' W 009°19'1 2.3
2017-Oct-10 21:30N 37°32' W 009°18'1 2.3
2017-Oct-10 21:00N 37°31' W 009°18'1 2.4
2017-Oct-10 20:29N 37°30' W 009°17'1 2.5
2017-Oct-10 20:00N 37°29' W 009°17'1 2.3
2017-Oct-10 19:30N 37°28' W 009°16'0 0.6
2017-Oct-10 19:00N 37°28' W 009°16'0 0.6
2017-Oct-10 18:30N 37°28' W 009°17'1 2.5
2017-Oct-10 18:00N 37°29' W 009°17'1 2.5
2017-Oct-10 17:30N 37°31' W 009°17'1 2.4
2017-Oct-10 17:00N 37°32' W 009°18'1 2.4
2017-Oct-10 16:30N 37°33' W 009°19'1 2.4
2017-Oct-10 16:00N 37°34' W 009°19'1 2.4
2017-Oct-10 15:30N 37°35' W 009°20'1 2.4
2017-Oct-10 15:00N 37°36' W 009°21'2 2.2
2017-Oct-10 13:58N 37°38' W 009°23'0 0.9
2017-Oct-10 13:30N 37°38' W 009°23'1 1.0
2017-Oct-10 13:00N 37°38' W 009°23'1 2.4
2017-Oct-10 12:30N 37°37' W 009°22'1 2.5
2017-Oct-10 12:00N 37°36' W 009°21'1 2.5
2017-Oct-10 11:30N 37°35' W 009°20'1 2.4
2017-Oct-10 11:00N 37°34' W 009°20'2 2.4
2017-Oct-10 10:08N 37°32' W 009°18'0 2.3
2017-Oct-10 09:57N 37°32' W 009°18'1 2.3
2017-Oct-10 09:24N 37°31' W 009°18'2 2.4
2017-Oct-10 08:40N 37°29' W 009°17'0 1.8
2017-Oct-10 08:28N 37°29' W 009°17'2 4.1
2017-Oct-10 07:57N 37°27' W 009°16'4 9.7
2017-Oct-10 07:30N 37°23' W 009°13'2610.0
2017-Oct-10 04:54N 36°60' W 008°60'510.1
2017-Oct-10 04:25N 36°58' W 008°54'410.7
2017-Oct-10 04:00N 36°58' W 008°49'510.4
2017-Oct-10 03:30N 36°57' W 008°42'510.3
2017-Oct-10 03:00N 36°57' W 008°36'510.6
2017-Oct-10 02:30N 36°57' W 008°29'510.6
2017-Oct-10 02:00N 36°56' W 008°23'610.7
2017-Oct-10 01:27N 36°56' W 008°15'510.6
2017-Oct-10 01:00N 36°55' W 008°09'3 0.2
2017-Oct-09 11:20N 36°56' W 008°06'3 9.5
2017-Oct-09 11:01N 36°56' W 008°09'5 9.5
2017-Oct-09 10:31N 36°56' W 008°15'5 9.2
2017-Oct-09 10:01N 36°57' W 008°21'5 9.3
2017-Oct-09 09:31N 36°56' W 008°27'5 9.5
2017-Oct-09 09:01N 36°57' W 008°33'5 9.6
2017-Oct-09 08:30N 36°57' W 008°39'5 9.3
2017-Oct-09 08:00N 36°58' W 008°45'4 9.0
2017-Oct-09 07:31N 36°59' W 008°50'5 9.1
2017-Oct-09 07:00N 36°59' W 008°56'4 8.5
2017-Oct-09 06:30N 37°00' W 009°01'5 9.4
2017-Oct-09 06:00N 37°05' W 009°02'510.1
2017-Oct-09 05:30N 37°10' W 009°03'510.0
2017-Oct-09 05:00N 37°15' W 009°04'5 9.8
2017-Oct-09 04:30N 37°20' W 009°06'510.3
2017-Oct-09 03:59N 37°25' W 009°08'510.6
2017-Oct-09 03:31N 37°30' W 009°10'3 6.4
2017-Oct-09 03:00N 37°33' W 009°11'0 0.5
2017-Oct-09 02:30N 37°33' W 009°11'1 2.7
2017-Oct-09 02:01N 37°34' W 009°12'1 2.7
2017-Oct-09 01:30N 37°36' W 009°12'1 2.5
2017-Oct-09 01:01N 37°37' W 009°12'2 2.6
2017-Oct-09 00:26N 37°38' W 009°12'1 2.6
2017-Oct-08 23:58N 37°40' W 009°12'1 2.6
2017-Oct-08 23:31N 37°41' W 009°12'1 2.6
2017-Oct-08 22:58N 37°42' W 009°12'2 2.9
2017-Oct-08 22:26N 37°44' W 009°13'5 1.7
2017-Oct-08 19:19N 37°38' W 009°14'1 0.3
2017-Oct-08 15:56N 37°37' W 009°15'1 2.5
2017-Oct-08 15:30N 37°38' W 009°15'1 2.4
2017-Oct-08 15:01N 37°40' W 009°15'1 2.3
2017-Oct-08 14:31N 37°41' W 009°15'1 2.4
2017-Oct-08 14:00N 37°42' W 009°15'1 2.5
2017-Oct-08 13:30N 37°43' W 009°16'1 1.6
2017-Oct-08 13:00N 37°44' W 009°17'7 2.0
2017-Oct-08 09:26N 37°37' W 009°15'1 0.8
2017-Oct-08 08:04N 37°36' W 009°15'0 2.4
2017-Oct-08 08:00N 37°36' W 009°15'1 2.5
2017-Oct-08 07:30N 37°35' W 009°14'1 2.5
2017-Oct-08 07:00N 37°34' W 009°14'2 3.8
2017-Oct-08 06:28N 37°32' W 009°12'9 2.2
2017-Oct-08 02:21N 37°41' W 009°12'1 2.3
2017-Oct-08 01:55N 37°42' W 009°12'0 1.0
2017-Oct-08 01:31N 37°43' W 009°12'0 0.4
2017-Oct-08 01:01N 37°43' W 009°12'1 2.8
2017-Oct-08 00:30N 37°41' W 009°12'10 1.5
2017-Oct-07 17:50N 37°33' W 009°19'1 2.3
2017-Oct-07 17:30N 37°33' W 009°19'1 2.3
2017-Oct-07 17:00N 37°34' W 009°20'1 2.3
2017-Oct-07 16:30N 37°35' W 009°20'1 2.2
2017-Oct-07 16:01N 37°36' W 009°21'2 2.2
2017-Oct-07 15:14N 37°38' W 009°22'1 2.7
2017-Oct-07 14:55N 37°39' W 009°23'12 2.3
2017-Oct-07 09:33N 37°27' W 009°16'010.2
2017-Oct-07 09:30N 37°28' W 009°16'0 0.5
2017-Oct-07 09:00N 37°28' W 009°16'1 1.4
2017-Oct-07 08:31N 37°29' W 009°17'1 2.5
2017-Oct-07 07:57N 37°30' W 009°17'1 2.5
2017-Oct-07 07:31N 37°31' W 009°18'1 2.5
2017-Oct-07 07:00N 37°32' W 009°18'1 2.5
2017-Oct-07 06:30N 37°33' W 009°19'1 2.5
2017-Oct-07 06:01N 37°34' W 009°20'1 2.4
2017-Oct-07 05:31N 37°35' W 009°20'1 2.4
2017-Oct-07 05:00N 37°37' W 009°21'1 2.3
2017-Oct-07 04:31N 37°37' W 009°22'1 3.0
2017-Oct-07 04:01N 37°38' W 009°23'0 0.2
2017-Oct-07 03:21N 37°38' W 009°23'1 2.3
2017-Oct-07 03:01N 37°38' W 009°22'1 2.7
2017-Oct-07 02:30N 37°37' W 009°21'2 2.7
2017-Oct-07 01:52N 37°35' W 009°20'1 2.6
2017-Oct-07 01:26N 37°34' W 009°19'1 2.6
2017-Oct-07 00:59N 37°33' W 009°19'2 2.6
2017-Oct-07 00:24N 37°32' W 009°18'1 2.6
2017-Oct-06 23:57N 37°31' W 009°17'3 2.8
2017-Oct-06 22:42N 37°27' W 009°16'0 1.2
2017-Oct-06 22:31N 37°27' W 009°16'0 0.7
2017-Oct-06 22:00N 37°27' W 009°16'1 2.2
2017-Oct-06 21:31N 37°28' W 009°16'1 2.4
2017-Oct-06 21:01N 37°29' W 009°17'1 2.4
2017-Oct-06 20:30N 37°30' W 009°18'1 2.5
2017-Oct-06 20:00N 37°31' W 009°18'1 2.5
2017-Oct-06 19:30N 37°32' W 009°19'1 2.5
2017-Oct-06 19:01N 37°34' W 009°20'1 2.4
2017-Oct-06 18:31N 37°35' W 009°20'1 2.4
2017-Oct-06 18:01N 37°36' W 009°21'1 2.4
2017-Oct-06 17:31N 37°37' W 009°22'1 2.3
2017-Oct-06 17:01N 37°37' W 009°23'1 2.9
2017-Oct-06 16:31N 37°39' W 009°24'1 1.7
2017-Oct-06 16:01N 37°38' W 009°23'0 0.8
2017-Oct-06 15:30N 37°38' W 009°24'1 2.6
2017-Oct-06 15:01N 37°37' W 009°22'1 2.7
2017-Oct-06 14:30N 37°36' W 009°21'1 2.6
2017-Oct-06 14:01N 37°35' W 009°20'1 2.6
2017-Oct-06 13:30N 37°34' W 009°20'5 2.6
2017-Oct-06 11:30N 37°29' W 009°17'2 2.6
2017-Oct-06 10:42N 37°27' W 009°16'1 4.9
2017-Oct-06 10:24N 37°26' W 009°15'37 9.0
2017-Oct-06 06:15N 36°57' W 008°46'310.2
2017-Oct-06 05:59N 36°57' W 008°42'510.3
2017-Oct-06 05:28N 36°57' W 008°36'23 1.1
2017-Oct-05 09:22N 36°56' W 008°07'3 8.9
2017-Oct-05 09:00N 36°56' W 008°11'4 8.7
2017-Oct-05 08:30N 36°56' W 008°17'4 8.5
2017-Oct-05 08:01N 36°56' W 008°22'4 8.4
2017-Oct-05 07:31N 36°56' W 008°27'4 8.4
2017-Oct-05 07:01N 36°57' W 008°33'4 8.7
2017-Oct-05 06:30N 36°57' W 008°38'4 8.8
2017-Oct-05 06:01N 36°58' W 008°43'5 9.3
2017-Oct-05 05:28N 36°58' W 008°50'27 8.6
2017-Oct-05 02:19N 37°19' W 009°11'310.0
2017-Oct-05 02:00N 37°22' W 009°13'610.2
2017-Oct-05 01:25N 37°27' W 009°16'410.0
2017-Oct-05 01:00N 37°31' W 009°19'5 9.9
2017-Oct-05 00:30N 37°35' W 009°21'3 4.9
2017-Oct-04 23:59N 37°38' W 009°23'0 0.5
2017-Oct-04 23:27N 37°37' W 009°22'12 2.6
2017-Oct-04 19:00N 37°27' W 009°16'1 1.0
2017-Oct-04 18:07N 37°28' W 009°16'0 2.4
2017-Oct-04 17:58N 37°28' W 009°17'3 2.5
2017-Oct-04 16:50N 37°31' W 009°18'1 2.6
2017-Oct-04 16:30N 37°32' W 009°18'2 2.5
2017-Oct-04 15:53N 37°33' W 009°19'1 2.4
2017-Oct-04 15:31N 37°34' W 009°19'1 2.4
2017-Oct-04 15:01N 37°35' W 009°20'1 2.4
2017-Oct-04 14:31N 37°36' W 009°21'9 1.3
2017-Oct-04 07:13N 37°27' W 009°16'6 2.1
2017-Oct-04 04:24N 37°33' W 009°19'1 2.4
2017-Oct-04 04:01N 37°34' W 009°19'1 2.4
2017-Oct-04 03:31N 37°35' W 009°20'1 2.4
2017-Oct-04 03:01N 37°36' W 009°21'1 2.4
2017-Oct-04 02:25N 37°37' W 009°22'1 2.4
2017-Oct-04 02:00N 37°38' W 009°22'2 3.1
2017-Oct-04 01:30N 37°39' W 009°24'8 6.0
2017-Oct-04 00:12N 37°41' W 009°14'2 8.3
2017-Oct-03 23:59N 37°42' W 009°12'3 1.7
2017-Oct-03 22:05N 37°38' W 009°12'0 2.5
2017-Oct-03 21:59N 37°38' W 009°12'8 1.3
2017-Oct-03 16:05N 37°33' W 009°19'0 2.4
2017-Oct-03 16:00N 37°33' W 009°19'1 2.3
2017-Oct-03 15:30N 37°34' W 009°20'1 2.4
2017-Oct-03 15:01N 37°35' W 009°20'5 0.2
2017-Oct-02 17:38N 37°31' W 009°17'0 2.4
2017-Oct-02 17:31N 37°31' W 009°18'1 2.3
2017-Oct-02 17:00N 37°32' W 009°18'1 2.4
2017-Oct-02 16:31N 37°33' W 009°19'1 2.3
2017-Oct-02 16:01N 37°34' W 009°19'1 2.2
2017-Oct-02 15:31N 37°35' W 009°20'1 2.2
2017-Oct-02 15:01N 37°36' W 009°21'  
Track history (hours):
 
Tides and Currents Weather Stations Pressure Air Temp Water Temp Dewpoint Dewpoint Depression Visibility Wind Speed Wind Dir Waves Ship Positions

Hermanos Mora Martin

Last reported at 2017-Oct-12 11:20 UTC. Time now 2017-Oct-18 18:40 UTC.
Position N 36°56' W 008°05'.

Length 23 m.

Type: Fishing. MMSI: 224171260.

Date/timePositionNaut miles runAvg speedWind from/ knotsBaromVisibWave heightAir tempDewpointWater temp
2017-Oct-12 11:20N 36°56' W 008°05'310.1
2017-Oct-12 11:00N 36°56' W 008°10'510.0
2017-Oct-12 10:30N 36°56' W 008°16'5 9.9
2017-Oct-12 10:00N 36°56' W 008°22'5 9.8
2017-Oct-12 09:30N 36°57' W 008°28'5 9.6
2017-Oct-12 09:00N 36°57' W 008°34'5 9.7
2017-Oct-12 08:30N 36°58' W 008°40'5 9.9
2017-Oct-12 07:59N 36°58' W 008°47'5 9.8
2017-Oct-12 07:30N 36°59' W 008°52'44 6.0
2017-Oct-12 00:12N 37°40' W 009°12'1 2.6
2017-Oct-12 00:00N 37°40' W 009°12'1 2.7
2017-Oct-11 23:30N 37°42' W 009°12'2 3.1
2017-Oct-11 23:00N 37°43' W 009°12'0 0.6
2017-Oct-11 22:30N 37°43' W 009°12'1 1.4
2017-Oct-11 21:59N 37°42' W 009°12'1 2.6
2017-Oct-11 21:24N 37°41' W 009°12'9 2.7
2017-Oct-11 18:05N 37°32' W 009°12'110.1
2017-Oct-11 17:59N 37°31' W 009°13'4 6.1
2017-Oct-11 17:23N 37°29' W 009°17'9 0.5
2017-Oct-10 23:59N 37°37' W 009°22'1 2.5
2017-Oct-10 23:30N 37°36' W 009°21'1 2.4
2017-Oct-10 23:00N 37°35' W 009°20'1 2.4
2017-Oct-10 22:30N 37°34' W 009°19'1 2.4
2017-Oct-10 22:00N 37°33' W 009°19'1 2.3
2017-Oct-10 21:30N 37°32' W 009°18'1 2.3
2017-Oct-10 21:00N 37°31' W 009°18'1 2.4
2017-Oct-10 20:29N 37°30' W 009°17'1 2.5
2017-Oct-10 20:00N 37°29' W 009°17'1 2.3
2017-Oct-10 19:30N 37°28' W 009°16'0 0.6
2017-Oct-10 19:00N 37°28' W 009°16'0 0.6
2017-Oct-10 18:30N 37°28' W 009°17'1 2.5
2017-Oct-10 18:00N 37°29' W 009°17'1 2.5
2017-Oct-10 17:30N 37°31' W 009°17'1 2.4
2017-Oct-10 17:00N 37°32' W 009°18'1 2.4
2017-Oct-10 16:30N 37°33' W 009°19'1 2.4
2017-Oct-10 16:00N 37°34' W 009°19'1 2.4
2017-Oct-10 15:30N 37°35' W 009°20'1 2.4
2017-Oct-10 15:00N 37°36' W 009°21'2 2.2
2017-Oct-10 13:58N 37°38' W 009°23'0 0.9
2017-Oct-10 13:30N 37°38' W 009°23'1 1.0
2017-Oct-10 13:00N 37°38' W 009°23'1 2.4
2017-Oct-10 12:30N 37°37' W 009°22'1 2.5
2017-Oct-10 12:00N 37°36' W 009°21'1 2.5
2017-Oct-10 11:30N 37°35' W 009°20'1 2.4
2017-Oct-10 11:00N 37°34' W 009°20'2 2.4
2017-Oct-10 10:08N 37°32' W 009°18'0 2.3
2017-Oct-10 09:57N 37°32' W 009°18'1 2.3
2017-Oct-10 09:24N 37°31' W 009°18'2 2.4
2017-Oct-10 08:40N 37°29' W 009°17'0 1.8
2017-Oct-10 08:28N 37°29' W 009°17'2 4.1
2017-Oct-10 07:57N 37°27' W 009°16'4 9.7
2017-Oct-10 07:30N 37°23' W 009°13'2610.0
2017-Oct-10 04:54N 36°60' W 008°60'510.1
2017-Oct-10 04:25N 36°58' W 008°54'410.7
2017-Oct-10 04:00N 36°58' W 008°49'510.4
2017-Oct-10 03:30N 36°57' W 008°42'510.3
2017-Oct-10 03:00N 36°57' W 008°36'510.6
2017-Oct-10 02:30N 36°57' W 008°29'510.6
2017-Oct-10 02:00N 36°56' W 008°23'610.7
2017-Oct-10 01:27N 36°56' W 008°15'510.6
2017-Oct-10 01:00N 36°55' W 008°09'3 0.2
2017-Oct-09 11:20N 36°56' W 008°06'3 9.5
2017-Oct-09 11:01N 36°56' W 008°09'5 9.5
2017-Oct-09 10:31N 36°56' W 008°15'5 9.2
2017-Oct-09 10:01N 36°57' W 008°21'5 9.3
2017-Oct-09 09:31N 36°56' W 008°27'5 9.5
2017-Oct-09 09:01N 36°57' W 008°33'5 9.6
2017-Oct-09 08:30N 36°57' W 008°39'5 9.3
2017-Oct-09 08:00N 36°58' W 008°45'4 9.0
2017-Oct-09 07:31N 36°59' W 008°50'5 9.1
2017-Oct-09 07:00N 36°59' W 008°56'4 8.5
2017-Oct-09 06:30N 37°00' W 009°01'5 9.4
2017-Oct-09 06:00N 37°05' W 009°02'510.1
2017-Oct-09 05:30N 37°10' W 009°03'510.0
2017-Oct-09 05:00N 37°15' W 009°04'5 9.8
2017-Oct-09 04:30N 37°20' W 009°06'510.3
2017-Oct-09 03:59N 37°25' W 009°08'510.6
2017-Oct-09 03:31N 37°30' W 009°10'3 6.4
2017-Oct-09 03:00N 37°33' W 009°11'0 0.5
2017-Oct-09 02:30N 37°33' W 009°11'1 2.7
2017-Oct-09 02:01N 37°34' W 009°12'1 2.7
2017-Oct-09 01:30N 37°36' W 009°12'1 2.5
2017-Oct-09 01:01N 37°37' W 009°12'2 2.6
2017-Oct-09 00:26N 37°38' W 009°12'1 2.6
2017-Oct-08 23:58N 37°40' W 009°12'1 2.6
2017-Oct-08 23:31N 37°41' W 009°12'1 2.6
2017-Oct-08 22:58N 37°42' W 009°12'2 2.9
2017-Oct-08 22:26N 37°44' W 009°13'5 1.7
2017-Oct-08 19:19N 37°38' W 009°14'1 0.3
2017-Oct-08 15:56N 37°37' W 009°15'1 2.5
2017-Oct-08 15:30N 37°38' W 009°15'1 2.4
2017-Oct-08 15:01N 37°40' W 009°15'1 2.3
2017-Oct-08 14:31N 37°41' W 009°15'1 2.4
2017-Oct-08 14:00N 37°42' W 009°15'1 2.5
2017-Oct-08 13:30N 37°43' W 009°16'1 1.6
2017-Oct-08 13:00N 37°44' W 009°17'7 2.0
2017-Oct-08 09:26N 37°37' W 009°15'1 0.8
2017-Oct-08 08:04N 37°36' W 009°15'0 2.4
2017-Oct-08 08:00N 37°36' W 009°15'1 2.5
2017-Oct-08 07:30N 37°35' W 009°14'1 2.5
2017-Oct-08 07:00N 37°34' W 009°14'2 3.8
2017-Oct-08 06:28N 37°32' W 009°12'9 2.2
2017-Oct-08 02:21N 37°41' W 009°12'1 2.3
2017-Oct-08 01:55N 37°42' W 009°12'0 1.0
2017-Oct-08 01:31N 37°43' W 009°12'0 0.4
2017-Oct-08 01:01N 37°43' W 009°12'1 2.8
2017-Oct-08 00:30N 37°41' W 009°12'10 1.5
2017-Oct-07 17:50N 37°33' W 009°19'1 2.3
2017-Oct-07 17:30N 37°33' W 009°19'1 2.3
2017-Oct-07 17:00N 37°34' W 009°20'1 2.3
2017-Oct-07 16:30N 37°35' W 009°20'1 2.2
2017-Oct-07 16:01N 37°36' W 009°21'2 2.2
2017-Oct-07 15:14N 37°38' W 009°22'1 2.7
2017-Oct-07 14:55N 37°39' W 009°23'12 2.3
2017-Oct-07 09:33N 37°27' W 009°16'010.2
2017-Oct-07 09:30N 37°28' W 009°16'0 0.5
2017-Oct-07 09:00N 37°28' W 009°16'1 1.4
2017-Oct-07 08:31N 37°29' W 009°17'1 2.5
2017-Oct-07 07:57N 37°30' W 009°17'1 2.5
2017-Oct-07 07:31N 37°31' W 009°18'1 2.5
2017-Oct-07 07:00N 37°32' W 009°18'1 2.5
2017-Oct-07 06:30N 37°33' W 009°19'1 2.5
2017-Oct-07 06:01N 37°34' W 009°20'1 2.4
2017-Oct-07 05:31N 37°35' W 009°20'1 2.4
2017-Oct-07 05:00N 37°37' W 009°21'1 2.3
2017-Oct-07 04:31N 37°37' W 009°22'1 3.0
2017-Oct-07 04:01N 37°38' W 009°23'0 0.2
2017-Oct-07 03:21N 37°38' W 009°23'1 2.3
2017-Oct-07 03:01N 37°38' W 009°22'1 2.7
2017-Oct-07 02:30N 37°37' W 009°21'2 2.7
2017-Oct-07 01:52N 37°35' W 009°20'1 2.6
2017-Oct-07 01:26N 37°34' W 009°19'1 2.6
2017-Oct-07 00:59N 37°33' W 009°19'2 2.6
2017-Oct-07 00:24N 37°32' W 009°18'1 2.6
2017-Oct-06 23:57N 37°31' W 009°17'3 2.8
2017-Oct-06 22:42N 37°27' W 009°16'0 1.2
2017-Oct-06 22:31N 37°27' W 009°16'0 0.7
2017-Oct-06 22:00N 37°27' W 009°16'1 2.2
2017-Oct-06 21:31N 37°28' W 009°16'1 2.4
2017-Oct-06 21:01N 37°29' W 009°17'1 2.4
2017-Oct-06 20:30N 37°30' W 009°18'1 2.5
2017-Oct-06 20:00N 37°31' W 009°18'1 2.5
2017-Oct-06 19:30N 37°32' W 009°19'1 2.5
2017-Oct-06 19:01N 37°34' W 009°20'1 2.4
2017-Oct-06 18:31N 37°35' W 009°20'1 2.4
2017-Oct-06 18:01N 37°36' W 009°21'1 2.4
2017-Oct-06 17:31N 37°37' W 009°22'1 2.3
2017-Oct-06 17:01N 37°37' W 009°23'1 2.9
2017-Oct-06 16:31N 37°39' W 009°24'1 1.7
2017-Oct-06 16:01N 37°38' W 009°23'0 0.8
2017-Oct-06 15:30N 37°38' W 009°24'1 2.6
2017-Oct-06 15:01N 37°37' W 009°22'1 2.7
2017-Oct-06 14:30N 37°36' W 009°21'1 2.6
2017-Oct-06 14:01N 37°35' W 009°20'1 2.6
2017-Oct-06 13:30N 37°34' W 009°20'5 2.6
2017-Oct-06 11:30N 37°29' W 009°17'2 2.6
2017-Oct-06 10:42N 37°27' W 009°16'1 4.9
2017-Oct-06 10:24N 37°26' W 009°15'37 9.0
2017-Oct-06 06:15N 36°57' W 008°46'310.2
2017-Oct-06 05:59N 36°57' W 008°42'510.3
2017-Oct-06 05:28N 36°57' W 008°36'23 1.1
2017-Oct-05 09:22N 36°56' W 008°07'3 8.9
2017-Oct-05 09:00N 36°56' W 008°11'4 8.7
2017-Oct-05 08:30N 36°56' W 008°17'4 8.5
2017-Oct-05 08:01N 36°56' W 008°22'4 8.4
2017-Oct-05 07:31N 36°56' W 008°27'4 8.4
2017-Oct-05 07:01N 36°57' W 008°33'4 8.7
2017-Oct-05 06:30N 36°57' W 008°38'4 8.8
2017-Oct-05 06:01N 36°58' W 008°43'5 9.3
2017-Oct-05 05:28N 36°58' W 008°50'27 8.6
2017-Oct-05 02:19N 37°19' W 009°11'310.0
2017-Oct-05 02:00N 37°22' W 009°13'610.2
2017-Oct-05 01:25N 37°27' W 009°16'410.0
2017-Oct-05 01:00N 37°31' W 009°19'5 9.9
2017-Oct-05 00:30N 37°35' W 009°21'3 4.9
2017-Oct-04 23:59N 37°38' W 009°23'0 0.5
2017-Oct-04 23:27N 37°37' W 009°22'12 2.6
2017-Oct-04 19:00N 37°27' W 009°16'1 1.0
2017-Oct-04 18:07N 37°28' W 009°16'0 2.4
2017-Oct-04 17:58N 37°28' W 009°17'3 2.5
2017-Oct-04 16:50N 37°31' W 009°18'1 2.6
2017-Oct-04 16:30N 37°32' W 009°18'2 2.5
2017-Oct-04 15:53N 37°33' W 009°19'1 2.4
2017-Oct-04 15:31N 37°34' W 009°19'1 2.4
2017-Oct-04 15:01N 37°35' W 009°20'1 2.4
2017-Oct-04 14:31N 37°36' W 009°21'9 1.3
2017-Oct-04 07:13N 37°27' W 009°16'6 2.1
2017-Oct-04 04:24N 37°33' W 009°19'1 2.4
2017-Oct-04 04:01N 37°34' W 009°19'1 2.4
2017-Oct-04 03:31N 37°35' W 009°20'1 2.4
2017-Oct-04 03:01N 37°36' W 009°21'1 2.4
2017-Oct-04 02:25N 37°37' W 009°22'1 2.4
2017-Oct-04 02:00N 37°38' W 009°22'2 3.1
2017-Oct-04 01:30N 37°39' W 009°24'8 6.0
2017-Oct-04 00:12N 37°41' W 009°14'2 8.3
2017-Oct-03 23:59N 37°42' W 009°12'3 1.7
2017-Oct-03 22:05N 37°38' W 009°12'0 2.5
2017-Oct-03 21:59N 37°38' W 009°12'8 1.3
2017-Oct-03 16:05N 37°33' W 009°19'0 2.4
2017-Oct-03 16:00N 37°33' W 009°19'1 2.3
2017-Oct-03 15:30N 37°34' W 009°20'1 2.4
2017-Oct-03 15:01N 37°35' W 009°20'5 0.2
2017-Oct-02 17:38N 37°31' W 009°17'0 2.4
2017-Oct-02 17:31N 37°31' W 009°18'1 2.3
2017-Oct-02 17:00N 37°32' W 009°18'1 2.4
2017-Oct-02 16:31N 37°33' W 009°19'1 2.3
2017-Oct-02 16:01N 37°34' W 009°19'1 2.2
2017-Oct-02 15:31N 37°35' W 009°20'1 2.2
2017-Oct-02 15:01N 37°36' W 009°21'  

Dump ship's entire track history